createdAt,value
2023-05-22T00:00:09.470Z,24.33
2023-05-22T00:00:19.504Z,24.30
2023-05-22T00:00:29.477Z,24.31
2023-05-22T00:00:39.742Z,24.30
2023-05-22T00:00:59.476Z,24.29
2023-05-22T00:01:09.486Z,24.30
2023-05-22T00:01:19.497Z,24.27
2023-05-22T00:01:29.459Z,24.31
2023-05-22T00:01:39.492Z,24.29
2023-05-22T00:01:49.600Z,24.29
2023-05-22T00:01:59.506Z,24.27
2023-05-22T00:02:19.567Z,24.27
2023-05-22T00:02:29.553Z,24.29
2023-05-22T00:02:39.579Z,24.29
2023-05-22T00:02:49.640Z,24.29
2023-05-22T00:02:59.553Z,24.27
2023-05-22T00:03:09.534Z,24.27
2023-05-22T00:03:29.542Z,24.29
2023-05-22T00:03:39.480Z,24.30
2023-05-22T00:03:49.439Z,24.31
2023-05-22T00:03:59.458Z,24.30
2023-05-22T00:04:09.456Z,24.30
2023-05-22T00:04:19.453Z,24.27
2023-05-22T00:04:48.440Z,24.29
2023-05-22T00:04:59.512Z,24.27
2023-05-22T00:05:09.467Z,24.27
2023-05-22T00:05:19.464Z,24.30
2023-05-22T00:05:29.470Z,24.29
2023-05-22T00:05:39.572Z,24.31
2023-05-22T00:05:49.428Z,24.29
2023-05-22T00:06:08.428Z,24.29
2023-05-22T00:06:19.457Z,24.29
2023-05-22T00:06:29.441Z,24.30
2023-05-22T00:06:39.442Z,24.30
2023-05-22T00:06:49.536Z,24.27
2023-05-22T00:07:09.420Z,24.30
2023-05-22T00:07:29.413Z,24.27
2023-05-22T00:07:39.432Z,24.24
2023-05-22T00:07:49.420Z,24.30
2023-05-22T00:07:59.426Z,24.30
2023-05-22T00:08:09.413Z,24.29
2023-05-22T00:08:19.450Z,24.27
2023-05-22T00:08:38.433Z,24.29
2023-05-22T00:08:49.406Z,24.29
2023-05-22T00:08:59.439Z,24.30
2023-05-22T00:09:09.425Z,24.29
2023-05-22T00:09:19.462Z,24.30
2023-05-22T00:09:39.433Z,24.31
2023-05-22T00:09:58.413Z,24.27
2023-05-22T00:10:09.427Z,24.26
2023-05-22T00:10:19.432Z,24.27
2023-05-22T00:10:29.402Z,24.29
2023-05-22T00:10:39.624Z,24.29
2023-05-22T00:10:49.392Z,24.29
2023-05-22T00:10:59.449Z,24.27
2023-05-22T00:11:19.403Z,24.27
2023-05-22T00:11:29.389Z,24.29
2023-05-22T00:11:39.412Z,24.27
2023-05-22T00:11:49.393Z,24.29
2023-05-22T00:12:09.386Z,24.29
2023-05-22T00:12:19.416Z,24.29
2023-05-22T00:12:39.395Z,24.29
2023-05-22T00:12:49.382Z,24.26
2023-05-22T00:12:59.407Z,24.29
2023-05-22T00:13:09.388Z,24.29
2023-05-22T00:13:19.391Z,24.27
2023-05-22T00:13:29.371Z,24.27
2023-05-22T00:13:39.410Z,24.29
2023-05-22T00:13:59.400Z,24.26
2023-05-22T00:14:09.402Z,24.24
2023-05-22T00:14:19.402Z,24.30
2023-05-22T00:14:29.385Z,24.29
2023-05-22T00:14:49.364Z,24.26
2023-05-22T00:14:59.409Z,24.29
2023-05-22T00:15:19.374Z,24.29
2023-05-22T00:15:29.387Z,24.29
2023-05-22T00:15:39.393Z,24.26
2023-05-22T00:15:49.363Z,24.27
2023-05-22T00:15:59.398Z,24.26
2023-05-22T00:16:09.354Z,24.29
2023-05-22T00:16:29.365Z,24.27
2023-05-22T00:16:39.388Z,24.29
2023-05-22T00:16:59.464Z,24.29
2023-05-22T00:17:09.395Z,24.27
2023-05-22T00:17:19.483Z,24.29
2023-05-22T00:17:39.414Z,24.27
2023-05-22T00:17:49.410Z,24.26
2023-05-22T00:17:59.398Z,24.29
2023-05-22T00:18:09.411Z,24.26
2023-05-22T00:18:19.385Z,24.29
2023-05-22T00:18:29.339Z,24.27
2023-05-22T00:18:49.358Z,24.29
2023-05-22T00:18:59.382Z,24.29
2023-05-22T00:19:09.359Z,24.26
2023-05-22T00:19:19.975Z,24.27
2023-05-22T00:19:39.344Z,24.27
2023-05-22T00:19:59.369Z,24.29
2023-05-22T00:20:09.326Z,24.26
2023-05-22T00:20:19.399Z,24.26
2023-05-22T00:20:29.355Z,24.26
2023-05-22T00:20:39.778Z,24.27
2023-05-22T00:20:49.333Z,24.26
2023-05-22T00:21:09.318Z,24.27
2023-05-22T00:21:19.360Z,24.26
2023-05-22T00:21:29.338Z,24.29
2023-05-22T00:21:39.331Z,24.26
2023-05-22T00:21:59.342Z,24.29
2023-05-22T00:22:19.359Z,24.27
2023-05-22T00:22:29.309Z,24.27
2023-05-22T00:22:39.364Z,24.29
2023-05-22T00:22:49.305Z,24.27
2023-05-22T00:22:59.317Z,24.26
2023-05-22T00:23:09.321Z,24.27
2023-05-22T00:23:28.338Z,24.27
2023-05-22T00:23:39.360Z,24.26
2023-05-22T00:23:49.301Z,24.27
2023-05-22T00:23:59.312Z,24.26
2023-05-22T00:24:09.300Z,24.24
2023-05-22T00:24:29.299Z,24.29
2023-05-22T00:24:49.297Z,24.24
2023-05-22T00:24:59.327Z,24.24
2023-05-22T00:25:09.300Z,24.29
2023-05-22T00:25:19.311Z,24.29
2023-05-22T00:25:29.293Z,24.27
2023-05-22T00:25:39.306Z,24.26
2023-05-22T00:25:58.320Z,24.27
2023-05-22T00:26:09.281Z,24.29
2023-05-22T00:26:19.299Z,24.27
2023-05-22T00:26:29.292Z,24.26
2023-05-22T00:26:39.327Z,24.27
2023-05-22T00:27:09.284Z,24.27
2023-05-22T00:27:19.318Z,24.27
2023-05-22T00:27:29.276Z,24.30
2023-05-22T00:27:39.331Z,24.27
2023-05-22T00:27:49.271Z,24.26
2023-05-22T00:27:59.301Z,24.26
2023-05-22T00:28:19.287Z,24.26
2023-05-22T00:28:29.265Z,24.27
2023-05-22T00:28:39.298Z,24.29
2023-05-22T00:28:49.265Z,24.27
2023-05-22T00:28:59.284Z,24.24
2023-05-22T00:29:29.271Z,24.27
2023-05-22T00:29:39.300Z,24.27
2023-05-22T00:29:49.259Z,24.26
2023-05-22T00:29:59.287Z,24.27
2023-05-22T00:30:09.262Z,24.23
2023-05-22T00:30:19.294Z,24.29
2023-05-22T00:30:39.468Z,24.27
2023-05-22T00:30:49.257Z,24.26
2023-05-22T00:30:59.282Z,24.26
2023-05-22T00:31:09.247Z,24.26
2023-05-22T00:31:19.285Z,24.27
2023-05-22T00:31:29.246Z,24.24
2023-05-22T00:31:39.280Z,24.26
2023-05-22T00:31:59.296Z,24.27
2023-05-22T00:32:09.257Z,24.26
2023-05-22T00:32:19.272Z,24.27
2023-05-22T00:32:29.311Z,24.27
2023-05-22T00:32:39.323Z,24.24
2023-05-22T00:32:49.309Z,24.29
2023-05-22T00:33:09.299Z,24.26
2023-05-22T00:33:19.234Z,24.26
2023-05-22T00:33:29.253Z,24.26
2023-05-22T00:33:39.234Z,24.29
2023-05-22T00:33:49.330Z,24.27
2023-05-22T00:33:59.286Z,24.24
2023-05-22T00:34:09.304Z,24.27
2023-05-22T00:34:28.270Z,24.26
2023-05-22T00:34:39.311Z,24.26
2023-05-22T00:34:49.395Z,24.27
2023-05-22T00:34:59.224Z,24.24
2023-05-22T00:35:09.257Z,24.26
2023-05-22T00:35:19.225Z,24.26
2023-05-22T00:35:29.249Z,24.24
2023-05-22T00:35:55.844Z,24.26
2023-05-22T00:36:00.971Z,24.27
2023-05-22T00:36:11.033Z,24.26
2023-05-22T00:36:20.969Z,24.27
2023-05-22T00:36:31.013Z,24.24
2023-05-22T00:37:00.959Z,24.24
2023-05-22T00:37:10.995Z,24.27
2023-05-22T00:37:20.983Z,24.26
2023-05-22T00:37:30.976Z,24.29
2023-05-22T00:37:40.958Z,24.26
2023-05-22T00:37:50.990Z,24.26
2023-05-22T00:38:10.990Z,24.26
2023-05-22T00:38:20.954Z,24.24
2023-05-22T00:38:30.976Z,24.27
2023-05-22T00:38:40.955Z,24.26
2023-05-22T00:38:50.964Z,24.26
2023-05-22T00:39:00.949Z,24.24
2023-05-22T00:39:19.947Z,24.27
2023-05-22T00:39:30.981Z,24.24
2023-05-22T00:39:40.946Z,24.27
2023-05-22T00:39:50.957Z,24.26
2023-05-22T00:40:00.944Z,24.26
2023-05-22T00:40:10.962Z,24.26
2023-05-22T00:40:20.937Z,24.27
2023-05-22T00:40:41.191Z,24.26
2023-05-22T00:40:50.974Z,24.24
2023-05-22T00:41:00.935Z,24.24
2023-05-22T00:41:10.969Z,24.24
2023-05-22T00:41:20.929Z,24.26
2023-05-22T00:41:30.948Z,24.26
2023-05-22T00:41:50.976Z,24.26
2023-05-22T00:42:00.928Z,24.26
2023-05-22T00:42:10.963Z,24.29
2023-05-22T00:42:20.929Z,24.26
2023-05-22T00:42:30.959Z,24.26
2023-05-22T00:42:40.922Z,24.26
2023-05-22T00:43:00.925Z,24.24
2023-05-22T00:43:10.960Z,24.23
2023-05-22T00:43:20.920Z,24.26
2023-05-22T00:43:30.927Z,24.26
2023-05-22T00:43:40.915Z,24.26
2023-05-22T00:43:50.986Z,24.26
2023-05-22T00:44:00.934Z,24.27
2023-05-22T00:44:20.910Z,24.26
2023-05-22T00:44:30.952Z,24.26
2023-05-22T00:44:40.906Z,24.26
2023-05-22T00:44:50.940Z,24.23
2023-05-22T00:45:00.920Z,24.26
2023-05-22T00:45:10.938Z,24.24
2023-05-22T00:45:30.943Z,24.26
2023-05-22T00:45:40.897Z,24.24
2023-05-22T00:45:50.923Z,24.24
2023-05-22T00:46:00.904Z,24.29
2023-05-22T00:46:10.946Z,24.27
2023-05-22T00:46:20.943Z,24.27
2023-05-22T00:46:40.983Z,24.26
2023-05-22T00:47:01.005Z,24.24
2023-05-22T00:47:10.921Z,24.27
2023-05-22T00:47:20.898Z,24.24
2023-05-22T00:47:30.940Z,24.26
2023-05-22T00:47:40.930Z,24.26
2023-05-22T00:47:50.949Z,24.26
2023-05-22T00:48:10.918Z,24.26
2023-05-22T00:48:20.894Z,24.26
2023-05-22T00:48:30.918Z,24.24
2023-05-22T00:48:40.896Z,24.24
2023-05-22T00:48:50.914Z,24.27
2023-05-22T00:49:00.912Z,24.29
2023-05-22T00:49:20.880Z,24.26
2023-05-22T00:49:30.891Z,24.23
2023-05-22T00:49:40.890Z,24.27
2023-05-22T00:49:50.891Z,24.27
2023-05-22T00:50:00.869Z,24.26
2023-05-22T00:50:10.913Z,24.24
2023-05-22T00:50:30.905Z,24.23
2023-05-22T00:50:40.973Z,24.26
2023-05-22T00:50:50.905Z,24.26
2023-05-22T00:51:00.879Z,24.23
2023-05-22T00:51:10.908Z,24.26
2023-05-22T00:51:20.878Z,24.26
2023-05-22T00:51:50.882Z,24.24
2023-05-22T00:52:00.864Z,24.26
2023-05-22T00:52:10.868Z,24.24
2023-05-22T00:52:20.869Z,24.24
2023-05-22T00:52:30.928Z,24.24
2023-05-22T00:52:40.854Z,24.24
2023-05-22T00:52:50.890Z,24.24
2023-05-22T00:53:10.888Z,24.27
2023-05-22T00:53:20.851Z,24.26
2023-05-22T00:53:30.883Z,24.26
2023-05-22T00:53:40.851Z,24.23
2023-05-22T00:53:50.866Z,24.24
2023-05-22T00:54:00.893Z,24.27
2023-05-22T00:54:20.839Z,24.26
2023-05-22T00:54:30.876Z,24.24
2023-05-22T00:54:40.842Z,24.26
2023-05-22T00:54:50.879Z,24.27
2023-05-22T00:55:00.839Z,24.26
2023-05-22T00:55:10.880Z,24.23
2023-05-22T00:55:30.874Z,24.23
2023-05-22T00:55:40.833Z,24.27
2023-05-22T00:55:50.849Z,24.26
2023-05-22T00:56:00.850Z,24.23
2023-05-22T00:56:10.852Z,24.26
2023-05-22T00:56:20.827Z,24.27
2023-05-22T00:56:30.900Z,24.24
2023-05-22T00:56:49.847Z,24.24
2023-05-22T00:57:00.823Z,24.26
2023-05-22T00:57:10.848Z,24.27
2023-05-22T00:57:20.823Z,24.24
2023-05-22T00:57:30.852Z,24.24
2023-05-22T00:57:40.818Z,24.23
2023-05-22T00:57:50.839Z,24.23
2023-05-22T00:58:09.858Z,24.23
2023-05-22T00:58:20.831Z,24.23
2023-05-22T00:58:30.828Z,24.26
2023-05-22T00:58:40.807Z,24.27
2023-05-22T00:58:50.837Z,24.24
2023-05-22T00:59:00.816Z,24.24
2023-05-22T00:59:10.825Z,24.23
2023-05-22T00:59:29.837Z,24.24
2023-05-22T00:59:40.818Z,24.27
2023-05-22T00:59:50.865Z,24.24
2023-05-22T01:00:00.809Z,24.23
2023-05-22T01:00:10.837Z,24.26
2023-05-22T01:00:20.802Z,24.24
2023-05-22T01:00:30.837Z,24.23
2023-05-22T01:00:49.807Z,24.26
2023-05-22T01:01:00.795Z,24.23
2023-05-22T01:01:10.833Z,24.24
2023-05-22T01:01:20.800Z,24.24
2023-05-22T01:01:30.859Z,24.24
2023-05-22T01:01:40.802Z,24.24
2023-05-22T01:01:50.891Z,24.23
2023-05-22T01:02:10.871Z,24.24
2023-05-22T01:02:20.804Z,24.23
2023-05-22T01:02:30.838Z,24.24
2023-05-22T01:02:40.857Z,24.24
2023-05-22T01:02:50.855Z,24.26
2023-05-22T01:03:00.818Z,24.26
2023-05-22T01:03:10.940Z,24.27
2023-05-22T01:03:29.887Z,24.24
2023-05-22T01:03:40.858Z,24.21
2023-05-22T01:03:50.919Z,24.23
2023-05-22T01:04:00.924Z,24.24
2023-05-22T01:04:10.932Z,24.24
2023-05-22T01:04:39.772Z,24.26
2023-05-22T01:04:50.791Z,24.24
2023-05-22T01:05:00.768Z,24.24
2023-05-22T01:05:10.799Z,24.23
2023-05-22T01:05:20.763Z,24.24
2023-05-22T01:05:30.796Z,24.23
2023-05-22T01:05:40.777Z,24.24
2023-05-22T01:05:50.798Z,24.24
2023-05-22T01:06:10.777Z,24.23
2023-05-22T01:06:20.756Z,24.23
2023-05-22T01:06:30.772Z,24.23
2023-05-22T01:06:40.757Z,24.21
2023-05-22T01:07:00.752Z,24.24
2023-05-22T01:07:19.753Z,24.24
2023-05-22T01:07:30.804Z,24.24
2023-05-22T01:07:40.744Z,24.23
2023-05-22T01:07:50.776Z,24.23
2023-05-22T01:08:00.743Z,24.24
2023-05-22T01:08:10.769Z,24.24
2023-05-22T01:08:20.758Z,24.24
2023-05-22T01:08:40.743Z,24.23
2023-05-22T01:08:50.779Z,24.24
2023-05-22T01:09:00.739Z,24.23
2023-05-22T01:09:20.747Z,24.23
2023-05-22T01:09:30.760Z,24.21
2023-05-22T01:09:50.755Z,24.23
2023-05-22T01:10:00.733Z,24.21
2023-05-22T01:10:10.754Z,24.21
2023-05-22T01:10:20.729Z,24.21
2023-05-22T01:10:30.775Z,24.21
2023-05-22T01:10:41.029Z,24.24
2023-05-22T01:10:50.773Z,24.24
2023-05-22T01:11:10.737Z,24.24
2023-05-22T01:11:20.721Z,24.24
2023-05-22T01:11:30.752Z,24.23
2023-05-22T01:11:40.723Z,24.24
2023-05-22T01:11:50.750Z,24.23
2023-05-22T01:12:20.708Z,24.23
2023-05-22T01:12:30.724Z,24.23
2023-05-22T01:12:40.711Z,24.23
2023-05-22T01:12:50.731Z,24.24
2023-05-22T01:13:00.713Z,24.24
2023-05-22T01:13:10.739Z,24.23
2023-05-22T01:13:30.739Z,24.24
2023-05-22T01:13:40.710Z,24.23
2023-05-22T01:13:50.752Z,24.24
2023-05-22T01:14:00.719Z,24.24
2023-05-22T01:14:10.760Z,24.24
2023-05-22T01:14:20.702Z,24.21
2023-05-22T01:14:40.696Z,24.21
2023-05-22T01:15:00.726Z,24.24
2023-05-22T01:15:10.734Z,24.21
2023-05-22T01:15:20.692Z,24.23
2023-05-22T01:15:30.708Z,24.19
2023-05-22T01:15:40.724Z,24.23
2023-05-22T01:15:50.727Z,24.21
2023-05-22T01:16:00.737Z,24.21
2023-05-22T01:16:20.766Z,24.23
2023-05-22T01:16:30.691Z,24.23
2023-05-22T01:16:40.762Z,24.23
2023-05-22T01:16:50.679Z,24.19
2023-05-22T01:17:00.702Z,24.21
2023-05-22T01:17:10.681Z,24.24
2023-05-22T01:17:40.764Z,24.24
2023-05-22T01:17:50.743Z,24.23
2023-05-22T01:18:00.713Z,24.23
2023-05-22T01:18:10.726Z,24.23
2023-05-22T01:18:20.695Z,24.23
2023-05-22T01:18:30.667Z,24.21
2023-05-22T01:18:50.690Z,24.21
2023-05-22T01:19:00.722Z,24.23
2023-05-22T01:19:10.711Z,24.24
2023-05-22T01:19:20.794Z,24.23
2023-05-22T01:19:30.730Z,24.24
2023-05-22T01:19:40.697Z,24.21
2023-05-22T01:19:50.679Z,24.23
2023-05-22T01:20:10.656Z,24.21
2023-05-22T01:20:20.694Z,24.21
2023-05-22T01:20:40.911Z,24.23
2023-05-22T01:20:50.657Z,24.23
2023-05-22T01:21:00.685Z,24.23
2023-05-22T01:21:20.667Z,24.21
2023-05-22T01:21:30.647Z,24.21
2023-05-22T01:21:40.709Z,24.26
2023-05-22T01:21:50.652Z,24.24
2023-05-22T01:22:00.685Z,24.23
2023-05-22T01:22:10.645Z,24.23
2023-05-22T01:22:20.685Z,24.23
2023-05-22T01:22:30.653Z,24.21
2023-05-22T01:22:50.644Z,24.23
2023-05-22T01:23:00.671Z,24.23
2023-05-22T01:23:10.635Z,24.24
2023-05-22T01:23:30.637Z,24.23
2023-05-22T01:23:40.650Z,24.23
2023-05-22T01:24:00.650Z,24.24
2023-05-22T01:24:10.631Z,24.21
2023-05-22T01:24:20.670Z,24.21
2023-05-22T01:24:30.628Z,24.24
2023-05-22T01:24:40.663Z,24.24
2023-05-22T01:24:50.664Z,24.23
2023-05-22T01:25:00.682Z,24.23
2023-05-22T01:25:10.671Z,24.21
2023-05-22T01:25:30.615Z,24.23
2023-05-22T01:25:40.658Z,24.23
2023-05-22T01:25:50.621Z,24.19
2023-05-22T01:26:09.616Z,24.23
2023-05-22T01:26:20.644Z,24.23
2023-05-22T01:26:30.627Z,24.21
2023-05-22T01:26:50.612Z,24.23
2023-05-22T01:27:00.644Z,24.21
2023-05-22T01:27:10.612Z,24.24
2023-05-22T01:27:20.674Z,24.23
2023-05-22T01:27:30.604Z,24.24
2023-05-22T01:27:40.633Z,24.24
2023-05-22T01:28:00.627Z,24.23
2023-05-22T01:28:10.620Z,24.21
2023-05-22T01:28:20.625Z,24.23
2023-05-22T01:28:30.596Z,24.21
2023-05-22T01:28:40.632Z,24.24
2023-05-22T01:29:10.598Z,24.18
2023-05-22T01:29:20.614Z,24.21
2023-05-22T01:29:30.596Z,24.24
2023-05-22T01:29:40.623Z,24.24
2023-05-22T01:29:50.585Z,24.24
2023-05-22T01:30:00.606Z,24.24
2023-05-22T01:30:20.621Z,24.23
2023-05-22T01:30:30.589Z,24.23
2023-05-22T01:30:40.849Z,24.24
2023-05-22T01:30:50.583Z,24.23
2023-05-22T01:31:00.614Z,24.24
2023-05-22T01:31:10.579Z,24.23
2023-05-22T01:31:30.579Z,24.19
2023-05-22T01:31:40.594Z,24.21
2023-05-22T01:31:50.578Z,24.23
2023-05-22T01:32:00.609Z,24.23
2023-05-22T01:32:10.607Z,24.24
2023-05-22T01:32:20.617Z,24.23
2023-05-22T01:32:30.632Z,24.23
2023-05-22T01:32:40.683Z,24.21
2023-05-22T01:32:59.665Z,24.23
2023-05-22T01:33:10.699Z,24.24
2023-05-22T01:33:20.686Z,24.23
2023-05-22T01:33:30.651Z,24.24
2023-05-22T01:33:40.699Z,24.21
2023-05-22T01:33:50.668Z,24.23
2023-05-22T01:34:00.729Z,24.21
2023-05-22T01:34:20.585Z,24.21
2023-05-22T01:34:30.574Z,24.23
2023-05-22T01:34:40.590Z,24.23
2023-05-22T01:34:50.554Z,24.23
2023-05-22T01:35:00.585Z,24.19
2023-05-22T01:35:10.553Z,24.21
2023-05-22T01:35:20.580Z,24.21
2023-05-22T01:35:39.574Z,24.23
2023-05-22T01:35:50.559Z,24.23
2023-05-22T01:36:00.578Z,24.23
2023-05-22T01:36:10.546Z,24.21
2023-05-22T01:36:20.567Z,24.19
2023-05-22T01:36:30.549Z,24.23
2023-05-22T01:36:40.575Z,24.18
2023-05-22T01:37:00.558Z,24.21
2023-05-22T01:37:10.538Z,24.19
2023-05-22T01:37:20.555Z,24.21
2023-05-22T01:37:30.565Z,24.21
2023-05-22T01:37:40.579Z,24.21
2023-05-22T01:37:50.533Z,24.21
2023-05-22T01:38:00.571Z,24.21
2023-05-22T01:38:19.542Z,24.19
2023-05-22T01:38:30.535Z,24.21
2023-05-22T01:38:40.542Z,24.23
2023-05-22T01:38:50.534Z,24.21
2023-05-22T01:39:00.580Z,24.23
2023-05-22T01:39:20.556Z,24.21
2023-05-22T01:39:39.538Z,24.21
2023-05-22T01:39:50.521Z,24.23
2023-05-22T01:40:00.534Z,24.21
2023-05-22T01:40:10.522Z,24.19
2023-05-22T01:40:20.564Z,24.21
2023-05-22T01:40:30.517Z,24.23
2023-05-22T01:40:40.704Z,24.21
2023-05-22T01:41:00.535Z,24.18
2023-05-22T01:41:10.520Z,24.19
2023-05-22T01:41:20.542Z,24.18
2023-05-22T01:41:30.511Z,24.19
2023-05-22T01:41:50.505Z,24.23
2023-05-22T01:42:00.548Z,24.21
2023-05-22T01:42:20.527Z,24.19
2023-05-22T01:42:30.502Z,24.19
2023-05-22T01:42:40.525Z,24.19
2023-05-22T01:42:50.502Z,24.21
2023-05-22T01:43:00.534Z,24.21
2023-05-22T01:43:10.501Z,24.24
2023-05-22T01:43:20.531Z,24.18
2023-05-22T01:43:40.510Z,24.19
2023-05-22T01:43:50.502Z,24.18
2023-05-22T01:44:00.509Z,24.23
2023-05-22T01:44:10.497Z,24.19
2023-05-22T01:44:30.493Z,24.18
2023-05-22T01:44:40.541Z,24.18
2023-05-22T01:45:00.501Z,24.21
2023-05-22T01:45:10.484Z,24.19
2023-05-22T01:45:20.512Z,24.19
2023-05-22T01:45:30.500Z,24.18
2023-05-22T01:45:40.516Z,24.21
2023-05-22T01:45:50.497Z,24.19
2023-05-22T01:46:10.541Z,24.18
2023-05-22T01:46:20.582Z,24.19
2023-05-22T01:46:39.540Z,24.19
2023-05-22T01:46:50.477Z,24.21
2023-05-22T01:47:00.489Z,24.19
2023-05-22T01:47:20.504Z,24.19
2023-05-22T01:47:30.502Z,24.21
2023-05-22T01:47:40.539Z,24.19
2023-05-22T01:47:50.472Z,24.21
2023-05-22T01:48:00.546Z,24.19
2023-05-22T01:48:10.491Z,24.23
2023-05-22T01:48:20.518Z,24.24
2023-05-22T01:48:39.489Z,24.21
2023-05-22T01:48:50.458Z,24.23
2023-05-22T01:49:09.516Z,24.21
2023-05-22T01:49:20.536Z,24.19
2023-05-22T01:49:30.519Z,24.19
2023-05-22T01:49:40.552Z,24.21
2023-05-22T01:49:50.517Z,24.21
2023-05-22T01:50:00.547Z,24.19
2023-05-22T01:50:10.514Z,24.23
2023-05-22T01:50:30.512Z,24.21
2023-05-22T01:50:40.940Z,24.19
2023-05-22T01:50:50.510Z,24.16
2023-05-22T01:51:00.546Z,24.19
2023-05-22T01:51:10.511Z,24.18
2023-05-22T01:51:20.538Z,24.19
2023-05-22T01:51:39.553Z,24.21
2023-05-22T01:51:59.532Z,24.19
2023-05-22T01:52:10.500Z,24.19
2023-05-22T01:52:20.540Z,24.19
2023-05-22T01:52:30.506Z,24.19
2023-05-22T01:52:40.536Z,24.19
2023-05-22T01:52:50.493Z,24.19
2023-05-22T01:53:00.515Z,24.19
2023-05-22T01:53:19.504Z,24.18
2023-05-22T01:53:30.488Z,24.19
2023-05-22T01:53:40.504Z,24.18
2023-05-22T01:53:50.497Z,24.19
2023-05-22T01:54:00.527Z,24.16
2023-05-22T01:54:10.488Z,24.21
2023-05-22T01:54:20.532Z,24.19
2023-05-22T01:54:40.517Z,24.19
2023-05-22T01:54:50.482Z,24.18
2023-05-22T01:55:00.515Z,24.19
2023-05-22T01:55:10.477Z,24.21
2023-05-22T01:55:20.524Z,24.19
2023-05-22T01:55:30.492Z,24.19
2023-05-22T01:55:50.492Z,24.19
2023-05-22T01:56:00.508Z,24.18
2023-05-22T01:56:10.472Z,24.21
2023-05-22T01:56:20.511Z,24.18
2023-05-22T01:56:30.469Z,24.21
2023-05-22T01:56:40.515Z,24.19
2023-05-22T01:56:59.498Z,24.19
2023-05-22T01:57:19.481Z,24.19
2023-05-22T01:57:30.466Z,24.18
2023-05-22T01:57:40.496Z,24.23
2023-05-22T01:57:50.460Z,24.18
2023-05-22T01:58:00.492Z,24.18
2023-05-22T01:58:10.513Z,24.19
2023-05-22T01:58:20.456Z,24.16
2023-05-22T01:58:30.478Z,24.23
2023-05-22T01:58:49.500Z,24.23
2023-05-22T01:59:00.457Z,24.19
2023-05-22T01:59:10.485Z,24.18
2023-05-22T01:59:20.450Z,24.18
2023-05-22T01:59:30.469Z,24.19
2023-05-22T01:59:50.466Z,24.19
2023-05-22T02:00:10.486Z,24.21
2023-05-22T02:00:20.451Z,24.18
2023-05-22T02:00:30.462Z,24.21
2023-05-22T02:00:40.577Z,24.18
2023-05-22T02:00:50.611Z,24.21
2023-05-22T02:01:00.993Z,24.21
2023-05-22T02:01:20.521Z,24.19
2023-05-22T02:01:30.464Z,24.18
2023-05-22T02:01:40.477Z,24.15
2023-05-22T02:01:50.507Z,24.16
2023-05-22T02:02:00.502Z,24.16
2023-05-22T02:02:29.542Z,24.16
2023-05-22T02:02:40.518Z,24.18
2023-05-22T02:02:50.527Z,24.21
2023-05-22T02:03:00.551Z,24.21
2023-05-22T02:03:10.634Z,24.19
2023-05-22T02:03:20.618Z,24.18
2023-05-22T02:03:30.603Z,24.19
2023-05-22T02:03:40.497Z,24.21
2023-05-22T02:03:50.457Z,24.16
2023-05-22T02:04:10.462Z,24.16
2023-05-22T02:04:20.412Z,24.18
2023-05-22T02:04:30.430Z,24.18
2023-05-22T02:04:40.415Z,24.18
2023-05-22T02:04:59.410Z,24.18
2023-05-22T02:05:20.420Z,24.18
2023-05-22T02:05:30.430Z,24.19
2023-05-22T02:05:40.406Z,24.18
2023-05-22T02:05:50.427Z,24.19
2023-05-22T02:06:00.405Z,24.16
2023-05-22T02:06:10.422Z,24.19
2023-05-22T02:06:29.429Z,24.16
2023-05-22T02:06:40.399Z,24.19
2023-05-22T02:06:50.433Z,24.19
2023-05-22T02:07:00.414Z,24.16
2023-05-22T02:07:20.424Z,24.16
2023-05-22T02:07:30.407Z,24.15
2023-05-22T02:07:50.424Z,24.16
2023-05-22T02:08:00.389Z,24.16
2023-05-22T02:08:10.407Z,24.18
2023-05-22T02:08:20.390Z,24.18
2023-05-22T02:08:30.407Z,24.16
2023-05-22T02:08:40.386Z,24.18
2023-05-22T02:08:50.436Z,24.15
2023-05-22T02:09:09.397Z,24.18
2023-05-22T02:09:20.400Z,24.18
2023-05-22T02:09:30.412Z,24.18
2023-05-22T02:09:40.417Z,24.18
2023-05-22T02:09:59.376Z,24.15
2023-05-22T02:10:10.427Z,24.18
2023-05-22T02:10:30.410Z,24.16
2023-05-22T02:10:40.548Z,24.19
2023-05-22T02:10:50.386Z,24.16
2023-05-22T02:11:00.364Z,24.18
2023-05-22T02:11:10.387Z,24.18
2023-05-22T02:11:20.369Z,24.16
2023-05-22T02:11:39.365Z,24.16
2023-05-22T02:11:50.398Z,24.15
2023-05-22T02:12:00.363Z,24.18
2023-05-22T02:12:10.400Z,24.15
2023-05-22T02:12:30.390Z,24.18
2023-05-22T02:12:40.357Z,24.15
2023-05-22T02:13:00.353Z,24.15
2023-05-22T02:13:10.382Z,24.16
2023-05-22T02:13:20.364Z,24.18
2023-05-22T02:13:30.372Z,24.16
2023-05-22T02:13:40.353Z,24.15
2023-05-22T02:13:50.382Z,24.16
2023-05-22T02:14:09.365Z,24.16
2023-05-22T02:14:20.351Z,24.16
2023-05-22T02:14:30.362Z,24.18
2023-05-22T02:14:49.370Z,24.15
2023-05-22T02:15:00.345Z,24.18
2023-05-22T02:15:10.357Z,24.15
2023-05-22T02:15:29.365Z,24.15
2023-05-22T02:15:40.406Z,24.15
2023-05-22T02:15:50.394Z,24.16
2023-05-22T02:16:00.359Z,24.16
2023-05-22T02:16:10.429Z,24.14
2023-05-22T02:16:20.409Z,24.16
2023-05-22T02:16:30.394Z,24.14
2023-05-22T02:16:49.365Z,24.15
2023-05-22T02:17:00.332Z,24.14
2023-05-22T02:17:10.367Z,24.18
2023-05-22T02:17:29.380Z,24.16
2023-05-22T02:17:40.428Z,24.16
2023-05-22T02:17:50.398Z,24.15
2023-05-22T02:18:10.361Z,24.18
2023-05-22T02:18:20.325Z,24.15
2023-05-22T02:18:30.357Z,24.16
2023-05-22T02:18:40.316Z,24.16
2023-05-22T02:18:50.361Z,24.15
2023-05-22T02:19:00.342Z,24.15
2023-05-22T02:19:20.369Z,24.16
2023-05-22T02:19:39.299Z,24.16
2023-05-22T02:19:50.378Z,24.16
2023-05-22T02:20:00.305Z,24.16
2023-05-22T02:20:10.334Z,24.15
2023-05-22T02:20:30.341Z,24.18
2023-05-22T02:20:40.487Z,24.18
2023-05-22T02:20:50.344Z,24.16
2023-05-22T02:21:00.303Z,24.16
2023-05-22T02:21:10.349Z,24.15
2023-05-22T02:21:20.305Z,24.16
2023-05-22T02:21:40.295Z,24.16
2023-05-22T02:21:50.304Z,24.16
2023-05-22T02:22:10.309Z,24.19
2023-05-22T02:22:20.302Z,24.14
2023-05-22T02:22:30.323Z,24.15
2023-05-22T02:22:50.314Z,24.15
2023-05-22T02:23:00.306Z,24.16
2023-05-22T02:23:10.319Z,24.16
2023-05-22T02:23:20.283Z,24.14
2023-05-22T02:23:30.321Z,24.16
2023-05-22T02:23:40.301Z,24.18
2023-05-22T02:24:00.271Z,24.18
2023-05-22T02:24:10.310Z,24.15
2023-05-22T02:24:20.276Z,24.16
2023-05-22T02:24:40.271Z,24.15
2023-05-22T02:24:50.292Z,24.15
2023-05-22T02:25:09.288Z,24.16
2023-05-22T02:25:20.268Z,24.18
2023-05-22T02:25:30.300Z,24.15
2023-05-22T02:25:40.290Z,24.15
2023-05-22T02:25:50.300Z,24.14
2023-05-22T02:26:00.264Z,24.16
2023-05-22T02:26:10.273Z,24.16
2023-05-22T02:26:30.334Z,24.12
2023-05-22T02:26:40.260Z,24.16
2023-05-22T02:26:50.272Z,24.18
2023-05-22T02:27:10.310Z,24.16
2023-05-22T02:27:20.253Z,24.15
2023-05-22T02:27:40.250Z,24.18
2023-05-22T02:27:50.265Z,24.15
2023-05-22T02:28:00.250Z,24.15
2023-05-22T02:28:10.307Z,24.15
2023-05-22T02:28:20.245Z,24.19
2023-05-22T02:28:30.282Z,24.12
2023-05-22T02:28:50.261Z,24.16
2023-05-22T02:29:00.246Z,24.16
2023-05-22T02:29:10.260Z,24.15
2023-05-22T02:29:30.272Z,24.12
2023-05-22T02:29:40.240Z,24.15
2023-05-22T02:30:00.237Z,24.14
2023-05-22T02:30:10.252Z,24.15
2023-05-22T02:30:20.243Z,24.15
2023-05-22T02:30:30.261Z,24.15
2023-05-22T02:30:40.438Z,24.15
2023-05-22T02:30:50.266Z,24.16
2023-05-22T02:31:10.270Z,24.18
2023-05-22T02:31:20.308Z,24.15
2023-05-22T02:31:30.318Z,24.14
2023-05-22T02:31:40.272Z,24.16
2023-05-22T02:32:00.238Z,24.15
2023-05-22T02:32:20.219Z,24.15
2023-05-22T02:32:30.279Z,24.16
2023-05-22T02:32:40.269Z,24.15
2023-05-22T02:32:50.289Z,24.15
2023-05-22T02:33:00.441Z,24.16
2023-05-22T02:33:10.286Z,24.12
2023-05-22T02:33:30.237Z,24.15
2023-05-22T02:33:40.209Z,24.14
2023-05-22T02:33:50.241Z,24.15
2023-05-22T02:34:00.206Z,24.14
2023-05-22T02:34:10.225Z,24.15
2023-05-22T02:34:40.202Z,24.14
2023-05-22T02:34:50.231Z,24.15
2023-05-22T02:35:00.206Z,24.14
2023-05-22T02:35:10.232Z,24.15
2023-05-22T02:35:20.204Z,24.16
2023-05-22T02:35:30.230Z,24.15
2023-05-22T02:35:50.226Z,24.15
2023-05-22T02:36:00.209Z,24.18
2023-05-22T02:36:10.233Z,24.16
2023-05-22T02:36:20.193Z,24.15
2023-05-22T02:36:30.224Z,24.16
2023-05-22T02:37:00.184Z,24.14
2023-05-22T02:37:10.203Z,24.14
2023-05-22T02:37:20.188Z,24.14